Time;durP1;ratioP1;P1;durP2;ratioP2;P2;SDS_P1;SDS_P2;PMS_P1;PMS_P2;Temp;Humidity;BMP_temperature;BMP_pressure;BME280_temperature;BME280_humidity;BME280_pressure;Samples;Min_cycle;Max_cycle;Signal;HPM_P1;HPM_P2
2023/12/02 05:45:47;;;;;;;2.63;1.17;;;;;;;;;;6114904;23;20022;-83
2023/12/02 05:51:26;;;;;;;2.50;0.63;;;;;;;;;;6125771;23;20092;-83
2023/12/02 06:06:33;;;;;;;5.70;1.80;;;;;;;;;;6153994;23;20036;-82
2023/12/02 06:09:25;;;;;;;5.25;1.13;;;;;;;;;;6152510;23;20014;-82
2023/12/02 06:12:02;;;;;;;3.17;1.33;;;;;;;;;;6153715;23;20006;-82
2023/12/02 06:14:34;;;;;;;8.23;1.63;;;;;;;;;;6155140;23;20018;-82
2023/12/02 06:17:37;;;;;;;4.15;0.95;;;;;;;;;;6154067;23;20530;-82
2023/12/02 06:20:05;;;;;;;2.25;1.55;;;;;;;;;;6150095;23;20072;-82
2023/12/02 06:22:32;;;;;;;3.67;1.17;;;;;;;;;;6153435;23;20032;-80
2023/12/02 06:24:58;;;;;;;1.48;0.95;;;;;;;;;;6152928;23;20007;-81
2023/12/02 06:27:24;;;;;;;2.72;0.95;;;;;;;;;;6153172;23;20706;-82
2023/12/02 06:29:50;;;;;;;1.67;0.73;;;;;;;;;;6151215;23;20009;-81
2023/12/02 06:32:16;;;;;;;1.10;0.88;;;;;;;;;;6150858;23;20052;-81
2023/12/02 06:34:42;;;;;;;0.73;0.43;;;;;;;;;;6153468;23;20005;-82
2023/12/02 06:37:08;;;;;;;2.35;1.33;;;;;;;;;;6150626;23;20019;-81
2023/12/02 06:39:34;;;;;;;1.27;0.77;;;;;;;;;;6150751;23;20033;-81
2023/12/02 06:42:00;;;;;;;1.85;0.70;;;;;;;;;;6153022;23;20016;-80
2023/12/02 06:44:26;;;;;;;1.88;1.13;;;;;;;;;;6152846;23;20128;-82
2023/12/02 06:46:52;;;;;;;1.73;0.88;;;;;;;;;;6178805;23;20047;-81
2023/12/02 06:49:18;;;;;;;5.20;0.90;;;;;;;;;;6183505;23;20001;-82
2023/12/02 06:51:44;;;;;;;3.53;0.93;;;;;;;;;;6157221;23;20020;-82
2023/12/02 06:54:10;;;;;;;2.42;0.77;;;;;;;;;;6185161;23;20023;-81
2023/12/02 06:56:36;;;;;;;3.45;1.33;;;;;;;;;;6185291;23;20019;-82
2023/12/02 06:59:03;;;;;;;3.78;0.75;;;;;;;;;;6183802;23;20009;-81
2023/12/02 07:01:30;;;;;;;3.13;1.35;;;;;;;;;;6181385;23;20013;-80
2023/12/02 07:03:57;;;;;;;2.65;0.77;;;;;;;;;;6183277;23;20008;-81
2023/12/02 07:06:23;;;;;;;1.45;0.63;;;;;;;;;;6182961;23;20020;-80
2023/12/02 07:08:50;;;;;;;1.67;0.88;;;;;;;;;;6183768;23;20001;-80
2023/12/02 07:11:16;;;;;;;1.77;0.82;;;;;;;;;;6185194;23;20060;-80
2023/12/02 07:13:42;;;;;;;3.03;1.23;;;;;;;;;;6184628;23;20035;-81
2023/12/02 07:16:08;;;;;;;4.03;1.15;;;;;;;;;;6157310;23;20021;-79
2023/12/02 07:18:34;;;;;;;3.72;1.55;;;;;;;;;;6181764;23;20009;-80
2023/12/02 07:21:00;;;;;;;5.15;1.90;;;;;;;;;;6181569;23;20831;-80
2023/12/02 07:23:28;;;;;;;1.45;0.77;;;;;;;;;;6180612;23;20425;-80
2023/12/02 07:25:54;;;;;;;2.95;1.77;;;;;;;;;;6153339;23;20020;-81
2023/12/02 07:28:20;;;;;;;3.55;1.80;;;;;;;;;;6182344;23;20008;-81
2023/12/02 07:30:48;;;;;;;1.95;1.25;;;;;;;;;;6183600;23;20009;-81
2023/12/02 07:33:14;;;;;;;5.10;1.48;;;;;;;;;;6158411;23;20005;-81
2023/12/02 07:35:40;;;;;;;6.57;1.40;;;;;;;;;;6184812;23;20087;-81
2023/12/02 07:38:06;;;;;;;3.30;0.80;;;;;;;;;;6155191;23;20005;-81
2023/12/02 07:40:32;;;;;;;3.60;1.13;;;;;;;;;;6156103;23;20111;-81
2023/12/02 07:42:58;;;;;;;4.47;1.35;;;;;;;;;;6183079;23;20083;-81
2023/12/02 07:45:24;;;;;;;3.72;1.70;;;;;;;;;;6183564;23;20091;-81
2023/12/02 07:47:50;;;;;;;3.17;0.60;;;;;;;;;;6152276;23;20005;-82
2023/12/02 07:50:16;;;;;;;6.57;1.98;;;;;;;;;;6154047;23;20405;-83
2023/12/02 07:52:43;;;;;;;3.70;2.35;;;;;;;;;;6156354;23;20044;-82
2023/12/02 07:55:09;;;;;;;13.95;2.88;;;;;;;;;;6153130;23;20072;-82
2023/12/02 07:57:34;;;;;;;4.93;1.38;;;;;;;;;;6155157;23;20425;-83
2023/12/02 08:00:00;;;;;;;2.47;1.13;;;;;;;;;;6155535;23;20009;-82
2023/12/02 08:02:26;;;;;;;1.52;0.60;;;;;;;;;;6182246;23;20020;-80
2023/12/02 08:04:52;;;;;;;0.77;0.70;;;;;;;;;;6154625;23;20005;-83
2023/12/02 08:07:18;;;;;;;5.22;0.98;;;;;;;;;;6155271;23;20001;-83
2023/12/02 08:09:44;;;;;;;4.70;0.80;;;;;;;;;;6154598;23;20352;-80
2023/12/02 08:12:10;;;;;;;1.00;0.57;;;;;;;;;;6181608;23;20048;-85
2023/12/02 08:14:37;;;;;;;4.05;1.88;;;;;;;;;;6154217;23;20377;-81
2023/12/02 08:17:03;;;;;;;4.22;0.93;;;;;;;;;;6155426;23;20013;-82
2023/12/02 08:19:29;;;;;;;2.03;0.77;;;;;;;;;;6155081;23;20058;-83
2023/12/02 08:21:55;;;;;;;3.25;0.73;;;;;;;;;;6182740;23;20017;-82
2023/12/02 08:24:21;;;;;;;2.28;0.45;;;;;;;;;;6182909;23;20005;-83
2023/12/02 08:26:47;;;;;;;1.85;0.80;;;;;;;;;;6186045;23;20195;-82
2023/12/02 08:29:13;;;;;;;2.90;1.40;;;;;;;;;;6159992;23;20008;-82
2023/12/02 08:31:39;;;;;;;2.83;1.73;;;;;;;;;;6160090;23;20017;-82
2023/12/02 08:34:05;;;;;;;5.65;1.33;;;;;;;;;;6183885;23;20000;-82
2023/12/02 08:36:31;;;;;;;0.47;0.25;;;;;;;;;;6158817;23;20433;-82
2023/12/02 08:38:57;;;;;;;1.85;0.82;;;;;;;;;;6159145;23;20012;-81
2023/12/02 08:41:24;;;;;;;1.33;1.05;;;;;;;;;;6158189;23;20024;-81
2023/12/02 08:43:50;;;;;;;1.85;0.93;;;;;;;;;;6155717;23;20377;-82
2023/12/02 08:46:19;;;;;;;0.65;0.52;;;;;;;;;;6181604;23;20032;-81
2023/12/02 08:48:45;;;;;;;2.35;0.88;;;;;;;;;;6154717;23;20121;-81
2023/12/02 08:51:11;;;;;;;0.75;0.47;;;;;;;;;;6179447;23;20028;-79
2023/12/02 08:53:37;;;;;;;0.10;0.10;;;;;;;;;;6179821;23;20009;-79
2023/12/02 08:56:03;;;;;;;1.40;0.40;;;;;;;;;;6179047;23;20020;-79
2023/12/02 08:58:30;;;;;;;4.72;1.70;;;;;;;;;;6181880;23;20011;-81
2023/12/02 09:00:55;;;;;;;1.77;1.10;;;;;;;;;;6182071;23;20005;-81
2023/12/02 09:03:22;;;;;;;1.55;0.75;;;;;;;;;;6182907;23;20019;-81
2023/12/02 09:05:48;;;;;;;8.05;2.65;;;;;;;;;;6155952;23;20036;-81
2023/12/02 09:08:14;;;;;;;4.28;1.80;;;;;;;;;;6183438;23;20051;-81
2023/12/02 09:10:40;;;;;;;2.85;1.25;;;;;;;;;;6182666;23;20811;-81
2023/12/02 09:13:32;;;;;;;3.38;1.65;;;;;;;;;;6184251;23;20005;-81
2023/12/02 09:16:00;;;;;;;1.52;1.30;;;;;;;;;;6160280;23;20021;-83
2023/12/02 09:18:31;;;;;;;3.38;2.25;;;;;;;;;;6157670;23;20013;-81
2023/12/02 09:20:57;;;;;;;3.40;1.77;;;;;;;;;;6183904;23;20321;-81
2023/12/02 09:23:23;;;;;;;5.70;2.10;;;;;;;;;;6184001;23;20001;-81
2023/12/02 09:25:51;;;;;;;3.63;1.48;;;;;;;;;;6183865;23;20013;-80
2023/12/02 09:28:18;;;;;;;7.78;2.67;;;;;;;;;;6183983;23;20001;-80
2023/12/02 09:31:04;;;;;;;2.45;1.00;;;;;;;;;;6157768;23;20019;-81
2023/12/02 09:33:31;;;;;;;4.47;1.75;;;;;;;;;;6157535;23;20017;-81
2023/12/02 09:35:57;;;;;;;;;;;;;;;;;;6157748;23;20009;-81
2023/12/02 09:38:23;;;;;;;2.80;1.08;;;;;;;;;;6183923;23;19912;-81
2023/12/02 09:41:04;;;;;;;2.08;0.88;;;;;;;;;;6157893;23;20036;-81
2023/12/02 09:43:34;;;;;;;1.58;0.70;;;;;;;;;;6156196;23;20415;-81
2023/12/02 09:46:03;;;;;;;1.48;0.60;;;;;;;;;;6156923;23;20025;-82
2023/12/02 09:48:44;;;;;;;1.08;0.38;;;;;;;;;;6182970;23;20011;-81
2023/12/02 09:51:20;;;;;;;1.73;0.95;;;;;;;;;;6182885;23;20031;-81
2023/12/02 09:54:03;;;;;;;0.88;0.55;;;;;;;;;;6183201;23;20027;-81
2023/12/02 09:56:31;;;;;;;9.82;1.27;;;;;;;;;;6156482;23;20013;-81
2023/12/02 09:59:08;;;;;;;0.80;0.50;;;;;;;;;;6156082;23;20009;-80
2023/12/02 10:01:40;;;;;;;6.82;0.82;;;;;;;;;;6156271;23;20052;-80
2023/12/02 10:04:22;;;;;;;2.83;0.95;;;;;;;;;;6182979;23;20052;-81
2023/12/02 10:06:48;;;;;;;;;;;;;;;;;;6183727;23;20084;-80
2023/12/02 10:09:18;;;;;;;1.45;0.52;;;;;;;;;;6182801;23;19935;-81
2023/12/02 10:11:47;;;;;;;2.40;0.73;;;;;;;;;;6182602;23;20020;-81
2023/12/02 10:14:16;;;;;;;0.65;0.30;;;;;;;;;;6155482;23;20013;-81
2023/12/02 10:16:44;;;;;;;0.50;0.30;;;;;;;;;;6182418;23;20016;-80
2023/12/02 10:19:19;;;;;;;0.10;0.10;;;;;;;;;;6154970;23;20051;-80
2023/12/02 10:21:46;;;;;;;0.65;0.40;;;;;;;;;;6156974;23;20024;-80
2023/12/02 10:24:13;;;;;;;0.30;0.10;;;;;;;;;;6182932;23;20429;-81
2023/12/02 10:26:42;;;;;;;0.10;0.10;;;;;;;;;;6183845;23;20015;-81
2023/12/02 10:29:27;;;;;;;0.45;0.10;;;;;;;;;;6182585;23;20076;-82
2023/12/02 10:32:03;;;;;;;1.10;0.30;;;;;;;;;;6156516;23;20060;-81
2023/12/02 10:34:33;;;;;;;1.15;0.40;;;;;;;;;;6156070;23;20340;-82
2023/12/02 10:37:00;;;;;;;0.47;0.10;;;;;;;;;;6156586;23;20037;-81
2023/12/02 10:39:26;;;;;;;0.52;0.20;;;;;;;;;;6155937;23;20434;-82
2023/12/02 10:41:57;;;;;;;2.90;0.20;;;;;;;;;;6156964;23;20025;-82
2023/12/02 10:44:24;;;;;;;0.30;0.20;;;;;;;;;;6183182;23;20332;-80
2023/12/02 10:46:50;;;;;;;;;;;;;;;;;;6183555;23;20268;-82
2023/12/02 10:49:16;;;;;;;;;;;;;;;;;;6154274;23;19904;-81
2023/12/02 10:51:42;;;;;;;;;;;;;;;;;;6156870;23;20560;-82
2023/12/02 10:54:09;;;;;;;0.20;0.13;;;;;;;;;;6155604;23;19911;-80
2023/12/02 10:56:37;;;;;;;0.52;0.20;;;;;;;;;;6180632;23;20013;-80
2023/12/02 10:59:03;;;;;;;;;;;;;;;;;;6182539;23;20016;-83
2023/12/02 11:01:29;;;;;;;;;;;;;;;;;;6156514;23;19908;-81
2023/12/02 11:03:55;;;;;;;;;;;;;;;;;;6181799;23;19919;-81
2023/12/02 11:06:21;;;;;;;;;;;;;;;;;;6182365;23;20269;-80
2023/12/02 11:08:48;;;;;;;;;;;;;;;;;;6154519;23;19908;-81
2023/12/02 11:11:20;;;;;;;0.20;0.10;;;;;;;;;;6155657;23;19908;-82
2023/12/02 11:13:46;;;;;;;;;;;;;;;;;;6155683;23;20325;-82
2023/12/02 11:16:20;;;;;;;1.23;0.50;;;;;;;;;;6155718;23;19913;-82
2023/12/02 11:18:45;;;;;;;0.60;0.20;;;;;;;;;;6179984;23;20718;-83
2023/12/02 11:21:17;;;;;;;1.17;0.50;;;;;;;;;;6154707;23;20408;-83
2023/12/02 11:24:02;;;;;;;0.75;0.38;;;;;;;;;;6155588;23;20016;-84
2023/12/02 11:26:47;;;;;;;0.43;0.30;;;;;;;;;;6155134;23;20792;-82
2023/12/02 12:10:13;;;;;;;;;;;;;;;;;;;;;
2023/12/02 12:53:20;;;;;;;;;;;;;;;;;;6239641;22;20085;-81
2023/12/02 16:20:35;;;;;;;1.55;0.52;;;;;;;;;;6216673;23;20103;-83
2023/12/02 16:23:10;;;;;;;0.38;0.20;;;;;;;;;;6216486;23;20746;-86
2023/12/02 16:28:53;;;;;;;1.15;0.50;;;;;;;;;;6148291;23;20064;-82
2023/12/02 16:31:25;;;;;;;0.88;0.22;;;;;;;;;;6134839;23;20444;-83
2023/12/02 16:33:52;;;;;;;0.17;0.10;;;;;;;;;;6208526;23;20040;-80
2023/12/02 16:36:21;;;;;;;0.95;0.40;;;;;;;;;;6183557;23;20016;-83
2023/12/02 16:38:50;;;;;;;2.20;0.82;;;;;;;;;;6182972;23;20060;-84
2023/12/02 16:41:16;;;;;;;2.75;0.85;;;;;;;;;;6208457;23;20017;-84
2023/12/02 16:43:42;;;;;;;1.25;0.60;;;;;;;;;;6183330;23;20413;-83
2023/12/02 16:49:16;;;;;;;0.73;0.50;;;;;;;;;;6150887;23;20008;-85
2023/12/02 16:55:18;;;;;;;3.45;0.82;;;;;;;;;;6178371;23;20009;-83
2023/12/02 16:58:08;;;;;;;3.60;0.82;;;;;;;;;;6153998;23;20047;-83
2023/12/02 17:00:41;;;;;;;2.75;1.00;;;;;;;;;;6196158;23;20031;-83
2023/12/02 17:03:09;;;;;;;0.77;0.57;;;;;;;;;;6241125;23;20024;-83
2023/12/02 17:05:35;;;;;;;1.85;0.52;;;;;;;;;;6212827;23;20054;-85
2023/12/02 17:22:17;;;;;;;3.47;0.95;;;;;;;;;;6271716;22;20059;-85
2023/12/02 17:24:51;;;;;;;2.15;0.55;;;;;;;;;;6227556;22;20027;-87
2023/12/02 17:33:54;;;;;;;0.30;0.20;;;;;;;;;;6207954;23;20503;-90
2023/12/02 18:02:25;;;;;;;1.17;0.65;;;;;;;;;;6212760;22;20099;-86
2023/12/02 18:04:54;;;;;;;1.33;0.70;;;;;;;;;;6218358;23;20313;-85
2023/12/02 18:09:56;;;;;;;1.17;0.63;;;;;;;;;;6221288;22;20031;-82
2023/12/02 18:12:25;;;;;;;2.45;0.63;;;;;;;;;;6219388;23;20012;-81
2023/12/02 18:14:51;;;;;;;1.75;0.73;;;;;;;;;;6245341;23;20042;-80
2023/12/02 18:17:17;;;;;;;8.88;2.45;;;;;;;;;;6245127;23;20653;-80
2023/12/02 18:19:43;;;;;;;2.42;1.40;;;;;;;;;;6244584;23;20039;-84
2023/12/02 18:22:14;;;;;;;1.38;0.73;;;;;;;;;;6218421;23;20467;-84
2023/12/02 18:24:43;;;;;;;1.98;0.30;;;;;;;;;;6218875;23;20020;-82
2023/12/02 18:29:55;;;;;;;2.60;1.00;;;;;;;;;;6268849;22;20041;-82
2023/12/02 18:32:25;;;;;;;2.33;0.75;;;;;;;;;;6241566;23;20020;-82
2023/12/02 18:34:51;;;;;;;1.25;0.52;;;;;;;;;;6241421;23;20020;-83
2023/12/02 18:37:17;;;;;;;3.60;0.57;;;;;;;;;;6242337;23;20047;-85
2023/12/02 18:39:43;;;;;;;0.98;0.65;;;;;;;;;;6240770;23;20502;-83
2023/12/02 18:42:29;;;;;;;4.93;1.58;;;;;;;;;;6240796;23;20016;-82
2023/12/02 18:48:10;;;;;;;0.43;0.30;;;;;;;;;;6240385;23;20039;-83
2023/12/02 18:50:36;;;;;;;2.25;0.43;;;;;;;;;;6240853;23;20514;-81
2023/12/02 18:53:38;;;;;;;0.98;0.68;;;;;;;;;;6239201;23;20030;-83
2023/12/02 18:56:04;;;;;;;3.73;0.80;;;;;;;;;;6213669;23;20023;-81
2023/12/02 18:59:23;;;;;;;2.22;1.10;;;;;;;;;;6240550;23;20048;-83
2023/12/02 19:02:11;;;;;;;1.13;0.20;;;;;;;;;;6127103;23;20409;-90
2023/12/02 19:04:37;;;;;;;2.47;0.47;;;;;;;;;;6162719;23;20531;-85
2023/12/02 19:07:08;;;;;;;1.27;0.73;;;;;;;;;;6216069;23;20071;-85
2023/12/02 19:10:08;;;;;;;2.38;0.50;;;;;;;;;;6218792;23;20020;-85
2023/12/02 19:13:03;;;;;;;0.52;0.40;;;;;;;;;;6215105;23;20024;-85
2023/12/02 19:15:38;;;;;;;1.75;0.70;;;;;;;;;;6199766;23;20718;-85
2023/12/02 19:18:08;;;;;;;1.98;0.95;;;;;;;;;;6212377;23;20044;-86
2023/12/02 19:20:33;;;;;;;1.63;0.70;;;;;;;;;;6212239;23;20090;-86
2023/12/02 19:22:59;;;;;;;0.93;0.73;;;;;;;;;;6211519;23;20008;-85
2023/12/02 19:25:28;;;;;;;0.82;0.60;;;;;;;;;;6212617;23;20048;-86
2023/12/02 19:27:55;;;;;;;2.42;0.77;;;;;;;;;;6213027;23;20099;-86
2023/12/02 19:30:23;;;;;;;1.00;0.32;;;;;;;;;;6210879;23;20016;-86
2023/12/02 19:32:49;;;;;;;0.63;0.50;;;;;;;;;;6212652;23;20027;-87
2023/12/02 19:35:16;;;;;;;0.88;0.20;;;;;;;;;;6221306;23;20287;-86
2023/12/02 20:29:27;;;;;;;0.65;0.40;;;;;;;;;;6192630;22;20094;-85
2023/12/02 20:34:42;;;;;;;0.93;0.52;;;;;;;;;;6155937;23;19975;-82
2023/12/02 20:37:11;;;;;;;1.90;0.70;;;;;;;;;;6178899;23;20025;-81
2023/12/02 20:40:12;;;;;;;0.90;0.70;;;;;;;;;;6181693;23;20017;-81
2023/12/02 20:45:52;;;;;;;2.42;0.68;;;;;;;;;;6164017;23;20345;-83
2023/12/02 20:48:26;;;;;;;6.57;0.95;;;;;;;;;;6182923;23;20095;-80
2023/12/02 20:56:37;;;;;;;3.78;1.33;;;;;;;;;;6261410;22;20332;-84
2023/12/02 20:59:06;;;;;;;2.75;0.60;;;;;;;;;;6248133;22;20081;-81
2023/12/02 21:01:34;;;;;;;2.45;1.17;;;;;;;;;;6248141;22;20019;-81
2023/12/02 21:04:01;;;;;;;2.28;0.93;;;;;;;;;;6248499;22;20019;-86
